Decoded Metar for KRHI (RHINELANDER in WI, USA) (IATA:RHI) | Meteo·Mobile Aviation Weather
aviador You're here:

KRHI Decoded Metar

RHINELANDER in WI, USA
Report Time2018-10-21 13:53:00
UTC Time2018-10-21 14:08:18
Flight Rules vfr VFR
Wind220° at 07 kt
W.Decomp.*RWY 27: 4.8 kt HW 5.1 kt LCW
RWY 15: 2.0 kt HW 6.7 kt RCW
W.Rank220° ranks 6
Current wind is below 220° avg. (7.7)
Visibility9999 m
Phenomena:N/A
Clouds:Broken 120 Hf
Expected CloudBase > 2,800 ft AGL from Temp-Dew spread
Ceiling12,000 ft
Temp-1°C (ISA -13)
Dew Point-8°C (59% RH)
AAT-6.4°C
QNH1022 hPa
Density Alt-230 ft
Elevation1,591 ft
Report Wrong Elevation
Raw Report
KRHI 211353Z AUTO 22007KT 10SM BKN120 M01/M08 A3019 RMK AO2 SLP242
T10111078 $=

Extra information for KRHI:More info

Metar Taf Metar & Taf Last 4 Metars F.Rules Stats Wind Profile Meteogram Temp Stats Airport Information Weather charts Add Link Nearby VenuesMetar ALERT Operation Metar Decoded Social comments

AIRNAV info for KRHI